createdAt,value
2022-08-16T00:01:24.447Z,21.86
2022-08-16T00:03:53.739Z,21.89
2022-08-16T00:06:21.915Z,21.88
2022-08-16T00:08:49.909Z,21.89
2022-08-16T00:11:17.011Z,21.89
2022-08-16T00:13:54.021Z,21.92
2022-08-16T00:17:00.957Z,21.92
2022-08-16T00:19:17.137Z,21.88
2022-08-16T00:21:45.147Z,21.91
2022-08-16T00:24:13.002Z,21.92
2022-08-16T00:26:44.941Z,21.92
2022-08-16T00:29:16.027Z,21.94
2022-08-16T00:31:59.664Z,21.95
2022-08-16T00:34:43.294Z,21.93
2022-08-16T00:37:18.545Z,21.92
2022-08-16T00:39:58.250Z,21.91
2022-08-16T00:42:32.351Z,21.90
2022-08-16T00:45:31.516Z,21.89
2022-08-16T00:48:30.495Z,21.82
2022-08-16T00:51:00.463Z,21.84
2022-08-16T00:53:30.868Z,21.82
2022-08-16T00:56:05.167Z,21.83
2022-08-16T00:58:35.365Z,21.82
2022-08-16T01:01:08.050Z,21.81
2022-08-16T01:03:37.602Z,21.80
2022-08-16T01:06:39.541Z,21.76
2022-08-16T01:09:00.370Z,21.79
2022-08-16T01:11:29.697Z,21.79
2022-08-16T01:14:04.916Z,21.78
2022-08-16T01:16:32.669Z,21.75
2022-08-16T01:19:17.821Z,21.75
2022-08-16T01:22:48.192Z,21.72
2022-08-16T01:24:55.364Z,21.69
2022-08-16T01:27:29.726Z,21.69
2022-08-16T01:30:03.777Z,21.65
2022-08-16T01:32:36.019Z,21.61
2022-08-16T01:35:08.122Z,21.60
2022-08-16T01:37:53.095Z,21.58
2022-08-16T01:40:28.166Z,21.56
2022-08-16T01:42:57.113Z,21.55
2022-08-16T01:45:24.542Z,21.54
2022-08-16T01:48:19.170Z,21.55
2022-08-16T01:51:09.539Z,21.53
2022-08-16T01:53:34.526Z,21.51
2022-08-16T01:56:24.547Z,21.47
2022-08-16T01:58:55.838Z,21.45
2022-08-16T02:01:26.193Z,21.43
2022-08-16T02:03:58.621Z,21.39
2022-08-16T02:06:38.677Z,21.38
2022-08-16T02:09:11.918Z,21.36
2022-08-16T02:11:48.697Z,21.33
2022-08-16T02:14:27.509Z,21.30
2022-08-16T02:16:57.876Z,21.25
2022-08-16T02:19:58.582Z,21.24
2022-08-16T02:22:34.814Z,21.22
2022-08-16T02:25:10.452Z,21.20
2022-08-16T02:27:43.441Z,21.16
2022-08-16T02:30:37.214Z,21.12
2022-08-16T02:33:06.185Z,21.10
2022-08-16T02:35:54.029Z,21.04
2022-08-16T02:38:24.201Z,21.06
2022-08-16T02:40:54.367Z,21.07
2022-08-16T02:43:26.735Z,21.07
2022-08-16T02:45:57.897Z,21.03
2022-08-16T02:48:29.247Z,21.03
2022-08-16T02:51:10.240Z,21.02
2022-08-16T02:53:46.308Z,21.01
2022-08-16T02:56:16.213Z,20.99
2022-08-16T02:58:50.747Z,20.99
2022-08-16T03:01:25.463Z,21.00
2022-08-16T03:04:29.214Z,20.96
2022-08-16T03:06:57.710Z,20.94
2022-08-16T03:09:47.743Z,20.94
2022-08-16T03:12:19.482Z,20.99
2022-08-16T03:14:48.442Z,21.04
2022-08-16T03:17:18.332Z,21.09
2022-08-16T03:19:48.149Z,21.23
2022-08-16T03:22:28.758Z,21.27
2022-08-16T03:25:07.282Z,21.39
2022-08-16T03:27:40.984Z,21.45
2022-08-16T03:30:19.822Z,21.42
2022-08-16T03:32:52.124Z,21.39
2022-08-16T03:35:33.062Z,21.35
2022-08-16T03:38:33.659Z,21.35
2022-08-16T03:41:17.196Z,21.28
2022-08-16T03:43:56.172Z,21.32
2022-08-16T03:46:47.884Z,21.36
2022-08-16T03:49:17.381Z,21.39
2022-08-16T03:51:47.503Z,21.37
2022-08-16T03:54:21.420Z,21.39
2022-08-16T03:56:57.113Z,21.43
2022-08-16T03:59:30.114Z,21.46
2022-08-16T04:02:01.738Z,21.50
2022-08-16T04:04:33.535Z,21.51
2022-08-16T04:07:07.117Z,21.55
2022-08-16T04:09:38.276Z,21.53
2022-08-16T04:12:10.689Z,21.59
2022-08-16T04:14:46.489Z,21.64
2022-08-16T04:17:17.130Z,21.71
2022-08-16T04:19:45.690Z,21.74
2022-08-16T04:22:17.423Z,21.80
2022-08-16T04:24:54.395Z,21.87
2022-08-16T04:27:29.059Z,21.94
2022-08-16T04:30:03.213Z,22.00
2022-08-16T04:32:36.376Z,22.06
2022-08-16T04:35:13.652Z,22.08
2022-08-16T04:37:47.390Z,22.17
2022-08-16T04:40:26.019Z,22.21
2022-08-16T04:42:55.601Z,22.30
2022-08-16T04:45:36.084Z,22.40
2022-08-16T04:48:10.496Z,22.79
2022-08-16T04:50:49.832Z,24.57
2022-08-16T04:53:20.919Z,25.71
2022-08-16T04:55:53.256Z,26.73
2022-08-16T04:58:43.870Z,27.56
2022-08-16T05:01:10.561Z,28.66
2022-08-16T05:03:41.532Z,28.98
2022-08-16T05:06:09.732Z,29.74
2022-08-16T05:08:38.205Z,30.47
2022-08-16T05:11:22.557Z,30.44
2022-08-16T05:13:50.235Z,31.37
2022-08-16T05:16:27.733Z,31.69
2022-08-16T05:19:11.737Z,32.12
2022-08-16T05:21:55.749Z,32.43
2022-08-16T05:24:24.959Z,32.57
2022-08-16T05:26:53.856Z,32.75
2022-08-16T05:29:24.926Z,33.62
2022-08-16T05:32:33.761Z,34.11
2022-08-16T05:35:07.804Z,34.62
2022-08-16T05:37:41.965Z,35.04
2022-08-16T05:40:13.849Z,35.66
2022-08-16T05:42:46.047Z,35.25
2022-08-16T05:45:21.318Z,35.66
2022-08-16T05:48:00.142Z,36.17
2022-08-16T05:50:37.378Z,36.51
2022-08-16T05:53:10.019Z,36.49
2022-08-16T05:55:46.046Z,36.57
2022-08-16T05:58:31.691Z,35.77
2022-08-16T06:01:01.285Z,35.61
2022-08-16T06:03:30.708Z,36.04
2022-08-16T06:06:02.780Z,36.13
2022-08-16T06:08:44.729Z,36.78
2022-08-16T06:11:15.790Z,37.42
2022-08-16T06:13:48.904Z,37.83
2022-08-16T06:16:22.195Z,37.08
2022-08-16T06:18:55.221Z,37.54
2022-08-16T06:21:23.959Z,36.95
2022-08-16T06:23:57.800Z,37.06
2022-08-16T06:26:36.746Z,37.97
2022-08-16T06:29:07.724Z,37.97
2022-08-16T06:31:46.938Z,37.52
2022-08-16T06:34:53.241Z,38.63
2022-08-16T06:37:03.811Z,39.10
2022-08-16T06:39:49.610Z,39.37
2022-08-16T06:42:47.952Z,39.31
2022-08-16T06:45:38.058Z,39.37
2022-08-16T06:48:14.224Z,39.47
2022-08-16T06:50:52.090Z,40.34
2022-08-16T06:53:20.788Z,39.30
2022-08-16T06:56:00.086Z,39.67
2022-08-16T06:58:38.622Z,39.36
2022-08-16T07:01:15.753Z,40.37
2022-08-16T07:03:55.423Z,40.48
2022-08-16T07:06:27.133Z,41.04
2022-08-16T07:08:59.161Z,41.67
2022-08-16T07:11:47.725Z,40.38
2022-08-16T07:14:27.113Z,39.95
2022-08-16T07:16:59.007Z,40.59
2022-08-16T07:20:01.956Z,41.13
2022-08-16T07:22:37.547Z,41.29
2022-08-16T07:25:13.408Z,41.16
2022-08-16T07:27:41.086Z,41.80
2022-08-16T07:30:38.798Z,41.92
2022-08-16T07:33:04.661Z,41.41
2022-08-16T07:35:34.592Z,41.50
2022-08-16T07:38:02.064Z,41.99
2022-08-16T07:41:01.030Z,40.91
2022-08-16T07:43:31.321Z,41.34
2022-08-16T07:46:01.877Z,41.22
2022-08-16T07:48:31.971Z,42.16
2022-08-16T07:51:01.588Z,42.25
2022-08-16T07:53:35.280Z,41.58
2022-08-16T07:56:11.827Z,42.68
2022-08-16T07:58:40.576Z,43.11
2022-08-16T08:01:14.996Z,42.06
2022-08-16T08:03:55.168Z,39.96
2022-08-16T08:06:29.169Z,39.72
2022-08-16T08:09:00.830Z,39.12
2022-08-16T08:11:30.109Z,38.70
2022-08-16T08:14:03.903Z,39.06
2022-08-16T08:16:38.897Z,38.83
2022-08-16T08:19:18.679Z,39.61
2022-08-16T08:22:01.100Z,38.87
2022-08-16T08:24:46.957Z,38.58
2022-08-16T08:27:22.733Z,40.11
2022-08-16T08:30:09.180Z,40.35
2022-08-16T08:33:02.170Z,40.08
2022-08-16T08:35:28.502Z,41.01
2022-08-16T08:37:56.905Z,40.36
2022-08-16T08:40:28.921Z,40.66
2022-08-16T08:43:00.957Z,40.36
2022-08-16T08:45:48.574Z,40.91
2022-08-16T08:48:32.879Z,40.40
2022-08-16T08:51:10.367Z,41.14
2022-08-16T08:53:58.734Z,41.39
2022-08-16T08:56:34.916Z,42.64
2022-08-16T08:59:21.035Z,41.51
2022-08-16T09:01:56.656Z,41.44
2022-08-16T09:04:27.690Z,40.91
2022-08-16T09:06:56.422Z,41.18
2022-08-16T09:09:26.546Z,41.33
2022-08-16T09:12:06.273Z,40.69
2022-08-16T09:14:50.797Z,39.20
2022-08-16T09:17:48.983Z,40.04
2022-08-16T09:20:13.776Z,39.68
2022-08-16T09:22:43.137Z,40.05
2022-08-16T09:25:12.593Z,39.86
2022-08-16T09:27:46.839Z,41.16
2022-08-16T09:30:33.409Z,40.66
2022-08-16T09:33:03.296Z,42.10
2022-08-16T09:35:34.614Z,42.91
2022-08-16T09:38:05.179Z,41.85
2022-08-16T09:40:42.667Z,42.12
2022-08-16T09:43:46.322Z,41.17
2022-08-16T09:46:03.511Z,42.26
2022-08-16T09:48:52.967Z,43.14
2022-08-16T09:51:36.597Z,43.22
2022-08-16T09:54:09.444Z,41.86
2022-08-16T09:56:38.654Z,41.84
2022-08-16T09:59:08.581Z,40.46
2022-08-16T10:01:38.616Z,41.84
2022-08-16T10:04:30.948Z,41.70
2022-08-16T10:09:54.053Z,40.80
2022-08-16T10:12:34.931Z,41.17
2022-08-16T10:15:17.006Z,41.34
2022-08-16T10:18:00.131Z,41.31
2022-08-16T10:20:34.800Z,41.66
2022-08-16T10:23:07.255Z,42.35
2022-08-16T10:27:19.781Z,42.16
2022-08-16T10:28:29.007Z,42.58
2022-08-16T10:30:59.794Z,43.13
2022-08-16T10:33:29.644Z,41.98
2022-08-16T10:36:07.623Z,42.68
2022-08-16T10:38:37.331Z,40.69
2022-08-16T10:41:08.749Z,39.23
2022-08-16T10:43:38.947Z,39.46
2022-08-16T10:46:40.135Z,38.80
2022-08-16T10:48:56.129Z,37.59
2022-08-16T10:51:33.382Z,38.44
2022-08-16T10:54:02.818Z,39.18
2022-08-16T10:56:51.423Z,40.46
2022-08-16T10:59:44.641Z,41.97
2022-08-16T11:02:58.969Z,42.21
2022-08-16T11:05:08.118Z,42.82
2022-08-16T11:07:43.658Z,41.01
2022-08-16T11:10:57.391Z,41.44
2022-08-16T11:16:01.172Z,42.08
2022-08-16T11:19:04.698Z,40.47
2022-08-16T11:21:29.533Z,41.00
2022-08-16T11:23:58.953Z,42.33
2022-08-16T11:26:28.489Z,42.84
2022-08-16T11:29:13.866Z,42.20
2022-08-16T11:31:42.525Z,42.86
2022-08-16T11:34:19.861Z,43.56
2022-08-16T11:36:59.309Z,43.89
2022-08-16T11:39:29.791Z,43.40
2022-08-16T11:41:58.044Z,42.61
2022-08-16T11:44:52.170Z,42.59
2022-08-16T11:47:13.274Z,42.21
2022-08-16T11:49:40.709Z,40.18
2022-08-16T11:52:08.065Z,40.30
2022-08-16T11:54:36.687Z,38.60
2022-08-16T11:57:09.201Z,36.94
2022-08-16T11:59:39.761Z,37.01
2022-08-16T12:02:32.263Z,36.43
2022-08-16T12:04:56.644Z,36.26
2022-08-16T12:07:24.210Z,34.95
2022-08-16T12:09:53.584Z,35.09
2022-08-16T12:12:23.512Z,34.38
2022-08-16T12:14:59.472Z,33.86
2022-08-16T12:17:32.295Z,33.99
2022-08-16T12:20:01.461Z,33.17
2022-08-16T12:22:31.432Z,32.70
2022-08-16T12:25:08.897Z,32.77
2022-08-16T12:27:39.283Z,32.54
2022-08-16T12:30:08.702Z,32.46
2022-08-16T12:32:52.946Z,32.03
2022-08-16T12:35:22.930Z,32.08
2022-08-16T12:37:54.351Z,32.13
2022-08-16T12:40:29.140Z,31.79
2022-08-16T12:42:59.710Z,31.68
2022-08-16T12:45:34.466Z,31.68
2022-08-16T12:48:33.829Z,31.58
2022-08-16T12:51:05.037Z,31.60
2022-08-16T12:53:41.013Z,31.70
2022-08-16T12:56:11.787Z,31.71
2022-08-16T12:58:48.814Z,31.46
2022-08-16T13:01:23.066Z,31.28
2022-08-16T13:04:08.319Z,31.27
2022-08-16T13:06:40.208Z,30.93
2022-08-16T13:09:28.934Z,30.82
2022-08-16T13:12:00.646Z,30.78
2022-08-16T13:14:33.572Z,30.74
2022-08-16T13:17:06.464Z,30.43
2022-08-16T13:20:05.422Z,30.31
2022-08-16T13:22:23.268Z,30.42
2022-08-16T13:24:53.028Z,30.41
2022-08-16T13:27:20.729Z,30.35
2022-08-16T13:30:02.258Z,30.39
2022-08-16T13:32:52.142Z,30.28
2022-08-16T13:35:20.616Z,30.22
2022-08-16T13:37:48.374Z,30.23
2022-08-16T13:40:20.006Z,30.21
2022-08-16T13:42:47.721Z,30.24
2022-08-16T13:45:16.701Z,30.22
2022-08-16T13:47:44.101Z,30.19
2022-08-16T13:50:13.210Z,30.10
2022-08-16T13:52:40.614Z,29.99
2022-08-16T13:55:17.831Z,30.03
2022-08-16T13:58:26.828Z,29.83
2022-08-16T14:00:34.311Z,29.90
2022-08-16T14:03:02.189Z,29.84
2022-08-16T14:05:29.297Z,29.89
2022-08-16T14:07:56.665Z,29.85
2022-08-16T14:10:24.030Z,29.84
2022-08-16T14:12:52.098Z,29.83
2022-08-16T14:15:21.096Z,29.62
2022-08-16T14:18:15.893Z,29.68
2022-08-16T14:20:35.722Z,29.71
2022-08-16T14:23:06.371Z,29.66
2022-08-16T14:25:33.453Z,29.54
2022-08-16T14:28:00.820Z,29.47
2022-08-16T14:30:28.196Z,29.44
2022-08-16T14:32:55.543Z,29.28
2022-08-16T14:35:36.641Z,29.34
2022-08-16T14:38:18.527Z,29.29
2022-08-16T14:40:52.781Z,29.39
2022-08-16T14:43:25.076Z,29.39
2022-08-16T14:45:54.836Z,29.41
2022-08-16T14:48:26.378Z,29.33
2022-08-16T14:50:55.343Z,29.41
2022-08-16T14:53:24.117Z,29.37
2022-08-16T14:55:51.340Z,29.43
2022-08-16T14:58:20.242Z,29.44
2022-08-16T15:01:02.421Z,29.44
2022-08-16T15:03:30.345Z,29.39
2022-08-16T15:06:01.700Z,29.31
2022-08-16T15:08:36.194Z,29.20
2022-08-16T15:11:07.476Z,29.13
2022-08-16T15:13:34.871Z,29.07
2022-08-16T15:16:03.576Z,29.03
2022-08-16T15:18:32.419Z,28.85
2022-08-16T15:21:02.252Z,28.87
2022-08-16T15:23:33.619Z,28.85
2022-08-16T15:26:03.403Z,28.76
2022-08-16T15:28:32.978Z,28.77
2022-08-16T15:31:03.135Z,28.72
2022-08-16T15:33:33.967Z,28.62
2022-08-16T15:36:02.492Z,28.65
2022-08-16T15:38:54.934Z,28.67
2022-08-16T15:41:38.462Z,28.50
2022-08-16T15:44:10.785Z,28.58
2022-08-16T15:46:56.532Z,28.55
2022-08-16T15:49:37.736Z,28.52
2022-08-16T15:52:42.016Z,28.44
2022-08-16T15:55:23.942Z,28.40
2022-08-16T15:57:58.285Z,28.28
2022-08-16T16:00:26.842Z,28.24
2022-08-16T16:03:08.487Z,28.18
2022-08-16T16:05:38.302Z,28.18
2022-08-16T16:08:10.870Z,28.15
2022-08-16T16:10:39.946Z,28.07
2022-08-16T16:13:08.774Z,28.01
2022-08-16T16:15:42.966Z,27.91
2022-08-16T16:18:12.131Z,27.84
2022-08-16T16:20:47.663Z,27.76
2022-08-16T16:23:23.389Z,27.68
2022-08-16T16:25:51.736Z,27.63
2022-08-16T16:29:05.654Z,27.60
2022-08-16T16:31:11.544Z,27.49
2022-08-16T16:33:43.534Z,27.48
2022-08-16T16:36:14.813Z,27.42
2022-08-16T16:38:46.349Z,27.39
2022-08-16T16:41:22.530Z,27.32
2022-08-16T16:43:53.567Z,27.26
2022-08-16T16:46:40.959Z,27.24
2022-08-16T16:49:11.354Z,27.13
2022-08-16T16:51:40.745Z,27.11
2022-08-16T16:54:12.818Z,27.04
2022-08-16T16:56:49.496Z,26.97
2022-08-16T16:59:18.872Z,26.90
2022-08-16T17:02:00.404Z,26.83
2022-08-16T17:04:39.402Z,26.74
2022-08-16T17:07:07.862Z,26.65
2022-08-16T17:09:40.420Z,26.57
2022-08-16T17:12:09.729Z,26.49
2022-08-16T17:14:38.438Z,26.41
2022-08-16T17:17:08.629Z,26.34
2022-08-16T17:19:40.951Z,26.27
2022-08-16T17:22:23.656Z,26.24
2022-08-16T17:25:00.555Z,26.15
2022-08-16T17:27:33.690Z,26.10
2022-08-16T17:30:15.021Z,26.00
2022-08-16T17:32:48.781Z,25.97
2022-08-16T17:35:23.159Z,25.91
2022-08-16T17:37:52.301Z,25.85
2022-08-16T17:40:38.297Z,25.81
2022-08-16T17:43:17.361Z,25.76
2022-08-16T17:45:44.403Z,25.71
2022-08-16T17:48:11.760Z,25.70
2022-08-16T17:50:39.669Z,25.67
2022-08-16T17:53:07.218Z,25.64
2022-08-16T17:55:36.903Z,25.60
2022-08-16T17:58:20.089Z,25.58
2022-08-16T18:00:52.251Z,25.53
2022-08-16T18:04:02.896Z,25.49
2022-08-16T18:06:18.816Z,25.48
2022-08-16T18:08:48.965Z,25.45
2022-08-16T18:11:18.992Z,25.42
2022-08-16T18:13:53.165Z,25.38
2022-08-16T18:16:20.745Z,25.36
2022-08-16T18:18:47.703Z,25.32
2022-08-16T18:21:34.044Z,25.30
2022-08-16T18:24:01.142Z,25.25
2022-08-16T18:26:28.213Z,25.21
2022-08-16T18:28:55.251Z,25.23
2022-08-16T18:31:22.280Z,25.23
2022-08-16T18:33:49.587Z,25.22
2022-08-16T18:36:22.141Z,25.22
2022-08-16T18:38:50.317Z,25.22
2022-08-16T18:41:18.338Z,25.18
2022-08-16T18:44:22.256Z,25.16
2022-08-16T18:46:32.332Z,25.12
2022-08-16T18:48:59.333Z,25.11
2022-08-16T18:51:26.470Z,25.08
2022-08-16T18:53:53.976Z,25.06
2022-08-16T18:56:21.249Z,25.08
2022-08-16T18:58:48.288Z,25.08
2022-08-16T19:01:15.375Z,25.10
2022-08-16T19:03:42.420Z,25.09
2022-08-16T19:06:13.936Z,25.10
2022-08-16T19:08:43.912Z,25.07
2022-08-16T19:11:15.068Z,25.06
2022-08-16T19:13:46.020Z,25.04
2022-08-16T19:16:13.911Z,24.99
2022-08-16T19:18:41.054Z,24.95
2022-08-16T19:21:11.437Z,24.90
2022-08-16T19:23:43.795Z,24.89
2022-08-16T19:26:24.958Z,24.87
2022-08-16T19:28:58.599Z,24.85
2022-08-16T19:31:31.742Z,24.81
2022-08-16T19:33:59.042Z,24.80
2022-08-16T19:36:35.887Z,24.78
2022-08-16T19:39:15.320Z,24.73
2022-08-16T19:41:45.314Z,24.68
2022-08-16T19:44:13.525Z,24.69
2022-08-16T19:46:44.994Z,24.69
2022-08-16T19:49:15.789Z,24.66
2022-08-16T19:51:47.637Z,24.64
2022-08-16T19:54:15.340Z,24.62
2022-08-16T19:56:42.493Z,24.61
2022-08-16T19:59:19.222Z,24.60
2022-08-16T20:01:51.143Z,24.65
2022-08-16T20:04:18.717Z,24.65
2022-08-16T20:06:47.030Z,24.65
2022-08-16T20:09:14.724Z,24.63
2022-08-16T20:11:44.542Z,24.64
2022-08-16T20:14:24.028Z,24.64
2022-08-16T20:16:55.183Z,24.65
2022-08-16T20:19:22.568Z,24.63
2022-08-16T20:21:50.002Z,24.65
2022-08-16T20:24:33.318Z,24.63
2022-08-16T20:27:02.534Z,24.61
2022-08-16T20:29:29.712Z,24.59
2022-08-16T20:31:56.982Z,24.56
2022-08-16T20:34:24.030Z,24.53
2022-08-16T20:36:50.971Z,24.50
2022-08-16T20:39:18.036Z,24.49
2022-08-16T20:44:29.362Z,24.40
2022-08-16T20:46:56.433Z,24.33
2022-08-16T20:49:23.836Z,24.31
2022-08-16T20:51:55.899Z,24.24
2022-08-16T20:54:24.630Z,24.19
2022-08-16T20:56:51.881Z,24.17
2022-08-16T20:59:19.076Z,24.12
2022-08-16T21:01:50.540Z,24.10
2022-08-16T21:04:23.464Z,24.05
2022-08-16T21:06:55.060Z,23.99
2022-08-16T21:09:25.400Z,23.95
2022-08-16T21:11:55.080Z,23.90
2022-08-16T21:14:23.092Z,23.85
2022-08-16T21:16:50.492Z,23.82
2022-08-16T21:19:17.733Z,23.77
2022-08-16T21:21:44.799Z,23.72
2022-08-16T21:24:11.981Z,23.69
2022-08-16T21:26:39.266Z,23.66
2022-08-16T21:29:07.682Z,23.63
2022-08-16T21:31:40.412Z,23.60
2022-08-16T21:34:08.417Z,23.57
2022-08-16T21:36:36.609Z,23.49
2022-08-16T21:39:06.249Z,23.51
2022-08-16T21:41:38.580Z,23.48
2022-08-16T21:46:34.014Z,23.40
2022-08-16T21:49:01.209Z,23.38
2022-08-16T21:51:28.293Z,23.33
2022-08-16T21:53:56.909Z,23.32
2022-08-16T21:56:24.026Z,23.30
2022-08-16T21:58:52.837Z,23.27
2022-08-16T22:01:23.290Z,23.25
2022-08-16T22:04:36.034Z,23.23
2022-08-16T22:06:39.213Z,23.20
2022-08-16T22:09:07.602Z,23.17
2022-08-16T22:11:34.653Z,23.15
2022-08-16T22:14:02.319Z,23.14
2022-08-16T22:16:33.212Z,23.06
2022-08-16T22:19:01.940Z,23.08
2022-08-16T22:21:29.781Z,23.05
2022-08-16T22:23:58.818Z,23.00
2022-08-16T22:26:33.506Z,22.96
2022-08-16T22:29:04.729Z,22.93
2022-08-16T22:31:32.337Z,22.92
2022-08-16T22:34:01.957Z,22.86
2022-08-16T22:36:31.262Z,22.89
2022-08-16T22:38:59.858Z,22.87
2022-08-16T22:41:28.733Z,22.82
2022-08-16T22:43:56.180Z,22.81
2022-08-16T22:46:23.540Z,22.79
2022-08-16T22:48:50.983Z,22.79
2022-08-16T22:51:19.607Z,22.76
2022-08-16T22:53:48.200Z,22.72
2022-08-16T22:56:17.690Z,22.70
2022-08-16T22:58:45.829Z,22.69
2022-08-16T23:01:14.175Z,22.67
2022-08-16T23:03:42.967Z,22.65
2022-08-16T23:06:12.473Z,22.62
2022-08-16T23:08:41.576Z,22.60
2022-08-16T23:11:22.828Z,22.56
2022-08-16T23:13:55.076Z,22.56
2022-08-16T23:16:33.051Z,22.54
2022-08-16T23:19:06.062Z,22.50
2022-08-16T23:21:34.205Z,22.45
2022-08-16T23:24:01.853Z,22.45
2022-08-16T23:26:45.297Z,22.38
2022-08-16T23:29:25.648Z,22.41
2022-08-16T23:32:11.187Z,22.35
2022-08-16T23:34:38.307Z,22.34
2022-08-16T23:37:06.660Z,22.36
2022-08-16T23:39:35.935Z,22.34
2022-08-16T23:42:11.776Z,22.33
2022-08-16T23:44:42.325Z,22.29
2022-08-16T23:47:24.671Z,22.28
2022-08-16T23:50:00.528Z,22.28
2022-08-16T23:52:42.105Z,22.27
2022-08-16T23:55:18.875Z,22.25
2022-08-16T23:57:46.397Z,22.24
